Terminal Aerodrome Forecast
Issued by NWS Lake Charles, LA

Home | Current Version | Previous Version | Text Only | Print | Product List | Glossary On
Versions: 1 2 3 4 5 6 7 8 9 10 11 12 13 14
000
FTUS44 KLCH 191700
TAFBPT
TAF
KBPT 191729Z 1918/2018 10007KT P6SM VCTS SCT025CB BKN040 OVC100
     FM192300 VRB05KT P6SM BKN040
     FM200400 VRB03KT P6SM SKC
      TEMPO 2008/2012 5SM BR
     FM201500 08010KT P6SM SKC=

USA.gov is the U.S. government's official web portal to all federal, state and local government web resources and services.